createdAt,value
2022-11-04T00:00:02.724Z,99179.56
2022-11-04T00:01:06.188Z,99172.47
2022-11-04T00:02:08.041Z,99178.16
2022-11-04T00:03:10.188Z,99180.00
2022-11-04T00:04:13.752Z,99175.72
2022-11-04T00:05:15.555Z,99183.88
2022-11-04T00:06:17.279Z,99171.69
2022-11-04T00:07:37.661Z,99171.69
2022-11-04T00:08:39.326Z,99172.88
2022-11-04T00:09:41.022Z,99180.00
2022-11-04T00:11:00.932Z,99176.16
2022-11-04T00:12:20.791Z,99178.19
2022-11-04T00:13:22.465Z,99176.97
2022-11-04T00:14:24.200Z,99173.53
2022-11-04T00:15:44.664Z,99179.00
2022-11-04T00:17:05.276Z,99180.03
2022-11-04T00:18:06.922Z,99173.72
2022-11-04T00:19:08.636Z,99179.44
2022-11-04T00:20:29.130Z,99167.88
2022-11-04T00:21:49.697Z,99169.69
2022-11-04T00:23:10.011Z,99172.34
2022-11-04T00:24:32.398Z,99170.31
2022-11-04T00:25:52.311Z,99176.63
2022-11-04T00:27:12.760Z,99186.78
2022-11-04T00:28:37.868Z,99174.59
2022-11-04T00:29:39.574Z,99167.28
2022-11-04T00:30:41.244Z,99178.69
2022-11-04T00:32:01.200Z,99177.88
2022-11-04T00:33:21.724Z,99180.28
2022-11-04T00:34:23.359Z,99178.44
2022-11-04T00:35:25.037Z,99173.38
2022-11-04T00:36:27.040Z,99182.13
2022-11-04T00:37:28.687Z,99177.03
2022-11-04T00:38:30.840Z,99177.44
2022-11-04T00:39:32.691Z,99179.06
2022-11-04T00:40:34.357Z,99175.22
2022-11-04T00:41:36.029Z,99176.44
2022-11-04T00:42:38.190Z,99175.22
2022-11-04T00:43:39.825Z,99174.59
2022-11-04T00:44:41.556Z,99179.50
2022-11-04T00:45:43.778Z,99176.44
2022-11-04T00:46:45.494Z,99161.22
2022-11-04T00:47:47.196Z,99175.63
2022-11-04T00:48:49.262Z,99166.50
2022-11-04T00:49:50.959Z,99170.94
2022-11-04T00:50:52.621Z,99162.84
2022-11-04T00:51:54.294Z,99169.72
2022-11-04T00:53:00.521Z,99176.84
2022-11-04T00:54:02.235Z,99180.72
2022-11-04T00:55:04.215Z,99178.69
2022-11-04T00:56:06.173Z,99186.38
2022-11-04T00:57:14.354Z,99179.50
2022-11-04T00:58:16.034Z,99183.16
2022-11-04T00:59:17.779Z,99173.38
2022-11-04T01:00:20.224Z,99183.97
2022-11-04T01:01:22.033Z,99177.88
2022-11-04T01:02:24.061Z,99176.84
2022-11-04T01:03:25.809Z,99169.72
2022-11-04T01:04:27.575Z,99171.56
2022-11-04T01:05:29.345Z,99169.94
2022-11-04T01:06:31.026Z,99174.59
2022-11-04T01:07:32.701Z,99167.69
2022-11-04T01:08:34.824Z,99163.81
2022-11-04T01:09:36.552Z,99170.34
2022-11-04T01:10:44.724Z,99159.75
2022-11-04T01:11:46.409Z,99165.66
2022-11-04T01:12:48.107Z,99170.94
2022-11-04T01:13:52.670Z,99165.25
2022-11-04T01:14:54.722Z,99173.59
2022-11-04T01:16:02.287Z,99169.31
2022-11-04T01:17:04.312Z,99165.88
2022-11-04T01:18:06.809Z,99166.06
2022-11-04T01:19:08.630Z,99157.13
2022-11-04T01:20:10.780Z,99158.94
2022-11-04T01:21:14.266Z,99167.66
2022-11-04T01:22:15.911Z,99160.97
2022-11-04T01:23:17.572Z,99166.03
2022-11-04T01:24:19.729Z,99164.81
2022-11-04T01:25:21.433Z,99164.00
2022-11-04T01:26:25.761Z,99173.38
2022-11-04T01:27:27.440Z,99167.47
2022-11-04T01:28:29.142Z,99164.47
2022-11-04T01:29:30.807Z,99161.41
2022-11-04T01:30:32.565Z,99154.28
2022-11-04T01:31:34.332Z,99166.69
2022-11-04T01:32:35.990Z,99161.59
2022-11-04T01:33:38.736Z,99162.22
2022-11-04T01:34:43.351Z,99153.66
2022-11-04T01:35:45.508Z,99153.28
2022-11-04T01:36:47.173Z,99164.06
2022-11-04T01:37:48.889Z,99157.13
2022-11-04T01:38:50.749Z,99161.00
2022-11-04T01:39:52.409Z,99150.63
2022-11-04T01:40:54.117Z,99147.78
2022-11-04T01:41:55.794Z,99158.16
2022-11-04T01:42:57.458Z,99159.78
2022-11-04T01:43:59.118Z,99162.44
2022-11-04T01:45:01.251Z,99150.44
2022-11-04T01:46:03.184Z,99153.28
2022-11-04T01:47:05.182Z,99147.41
2022-11-04T01:48:16.765Z,99161.59
2022-11-04T01:49:43.297Z,99143.94
2022-11-04T01:50:45.484Z,99153.09
2022-11-04T01:51:51.802Z,99145.75
2022-11-04T01:53:03.206Z,99149.63
2022-11-04T01:54:06.620Z,99149.44
2022-11-04T01:55:24.066Z,99146.38
2022-11-04T01:56:26.898Z,99143.72
2022-11-04T01:57:39.342Z,99147.19
2022-11-04T01:58:48.464Z,99147.19
2022-11-04T01:59:50.297Z,99149.44
2022-11-04T02:00:52.042Z,99143.31
2022-11-04T02:01:54.480Z,99145.16
2022-11-04T02:02:58.797Z,99147.59
2022-11-04T02:04:21.350Z,99140.88
2022-11-04T02:05:23.440Z,99143.72
2022-11-04T02:06:25.261Z,99144.53
2022-11-04T02:07:28.203Z,99137.66
2022-11-04T02:08:30.052Z,99140.09
2022-11-04T02:09:34.045Z,99138.47
2022-11-04T02:10:36.021Z,99128.72
2022-11-04T02:11:56.064Z,99134.59
2022-11-04T02:13:01.077Z,99132.97
2022-11-04T02:14:02.890Z,99139.06
2022-11-04T02:15:05.079Z,99125.44
2022-11-04T02:16:09.543Z,99131.75
2022-11-04T02:17:20.332Z,99138.06
2022-11-04T02:18:46.470Z,99130.31
2022-11-04T02:20:09.758Z,99133.38
2022-11-04T02:21:20.406Z,99131.56
2022-11-04T02:22:46.686Z,99128.69
2022-11-04T02:23:59.791Z,99130.31
2022-11-04T02:25:37.033Z,99123.03
2022-11-04T02:26:44.464Z,99124.22
2022-11-04T02:28:00.529Z,99127.88
2022-11-04T02:29:18.582Z,99118.38
2022-11-04T02:30:21.910Z,99115.72
2022-11-04T02:31:45.202Z,99115.72
2022-11-04T02:32:52.745Z,99119.56
2022-11-04T02:34:08.171Z,99119.97
2022-11-04T02:35:20.558Z,99110.00
2022-11-04T02:36:40.316Z,99120.19
2022-11-04T02:38:23.754Z,99116.94
2022-11-04T02:39:47.449Z,99110.41
2022-11-04T02:41:03.267Z,99109.63
2022-11-04T02:42:17.743Z,99110.63
2022-11-04T02:43:28.551Z,99111.25
2022-11-04T02:44:37.341Z,99105.34
2022-11-04T02:46:16.370Z,99114.28
2022-11-04T02:47:25.480Z,99117.75
2022-11-04T02:48:33.559Z,99108.63
2022-11-04T02:49:41.298Z,99105.56
2022-11-04T02:50:54.297Z,99111.44
2022-11-04T02:52:06.779Z,99109.19
2022-11-04T02:53:18.276Z,99106.16
2022-11-04T02:54:25.437Z,99105.56
2022-11-04T02:55:35.818Z,99106.97
2022-11-04T02:56:47.130Z,99106.97
2022-11-04T02:57:52.065Z,99104.72
2022-11-04T02:59:02.606Z,99103.53
2022-11-04T03:00:16.268Z,99111.22
2022-11-04T03:01:19.617Z,99094.34
2022-11-04T03:02:45.863Z,99097.81
2022-11-04T03:03:52.743Z,99105.91
2022-11-04T03:04:56.435Z,99098.81
2022-11-04T03:05:59.991Z,99101.66
2022-11-04T03:07:04.601Z,99091.69
2022-11-04T03:08:14.816Z,99102.56
2022-11-04T03:09:20.762Z,99100.72
2022-11-04T03:10:27.204Z,99096.47
2022-11-04T03:11:29.675Z,99085.31
2022-11-04T03:12:38.341Z,99090.81
2022-11-04T03:13:50.325Z,99091.63
2022-11-04T03:14:57.522Z,99095.06
2022-11-04T03:16:03.009Z,99098.06
2022-11-04T03:17:17.938Z,99102.50
2022-11-04T03:18:50.070Z,99103.66
2022-11-04T03:19:58.704Z,99104.50
2022-11-04T03:21:05.608Z,99105.56
2022-11-04T03:22:14.582Z,99108.66
2022-11-04T03:23:16.871Z,99112.72
2022-11-04T03:24:18.556Z,99112.91
2022-11-04T03:25:21.575Z,99108.31
2022-11-04T03:26:35.211Z,99105.88
2022-11-04T03:27:58.678Z,99095.72
2022-11-04T03:29:15.450Z,99096.56
2022-11-04T03:30:19.629Z,99112.81
2022-11-04T03:31:29.617Z,99112.00
2022-11-04T03:32:43.079Z,99107.97
2022-11-04T03:33:51.020Z,99101.03
2022-11-04T03:34:52.849Z,99106.34
2022-11-04T03:35:54.681Z,99106.53
2022-11-04T03:36:57.344Z,99118.31
2022-11-04T03:37:59.656Z,99121.78
2022-11-04T03:39:01.341Z,99118.94
2022-11-04T03:40:04.531Z,99117.72
2022-11-04T03:41:14.155Z,99111.81
2022-11-04T03:42:20.907Z,99122.81
2022-11-04T03:43:30.765Z,99122.41
2022-11-04T03:44:32.596Z,99116.94
2022-11-04T03:45:34.408Z,99117.75
2022-11-04T03:46:36.072Z,99123.22
2022-11-04T03:47:37.775Z,99115.47
2022-11-04T03:48:40.029Z,99114.88
2022-11-04T03:49:41.863Z,99118.75
2022-11-04T03:50:47.725Z,99109.19
2022-11-04T03:51:51.045Z,99112.25
2022-11-04T03:52:52.996Z,99114.50
2022-11-04T03:53:55.629Z,99113.25
2022-11-04T03:54:57.584Z,99099.25
2022-11-04T03:56:02.476Z,99117.53
2022-11-04T03:57:22.239Z,99114.88
2022-11-04T03:58:32.450Z,99114.50
2022-11-04T03:59:58.640Z,99120.38
2022-11-04T04:01:25.837Z,99110.84
2022-11-04T04:02:45.971Z,99114.88
2022-11-04T04:04:22.360Z,99111.66
2022-11-04T04:05:36.481Z,99108.38
2022-11-04T04:06:39.804Z,99108.38
2022-11-04T04:08:07.655Z,99104.72
2022-11-04T04:09:19.101Z,99106.78
2022-11-04T04:10:39.237Z,99106.78
2022-11-04T04:12:06.320Z,99111.44
2022-11-04T04:13:43.049Z,99111.81
2022-11-04T04:14:53.464Z,99112.84
2022-11-04T04:15:57.665Z,99101.06
2022-11-04T04:17:00.832Z,99102.91
2022-11-04T04:18:08.247Z,99105.53
2022-11-04T04:19:24.240Z,99112.44
2022-11-04T04:20:29.491Z,99101.88
2022-11-04T04:21:37.761Z,99108.38
2022-11-04T04:22:48.438Z,99101.88
2022-11-04T04:24:12.113Z,99099.03
2022-11-04T04:25:33.602Z,99097.81
2022-11-04T04:26:56.026Z,99104.31
2022-11-04T04:27:58.879Z,99106.75
2022-11-04T04:29:03.201Z,99100.88
2022-11-04T04:30:08.132Z,99099.44
2022-11-04T04:31:34.749Z,99111.44
2022-11-04T04:32:41.415Z,99098.84
2022-11-04T04:33:43.134Z,99107.59
2022-11-04T04:34:44.868Z,99103.31
2022-11-04T04:35:55.433Z,99104.13
2022-11-04T04:37:08.178Z,99114.06
2022-11-04T04:38:40.058Z,99101.88
2022-11-04T04:40:18.489Z,99102.69
2022-11-04T04:41:46.910Z,99107.97
2022-11-04T04:43:07.608Z,99109.00
2022-11-04T04:44:37.574Z,99105.94
2022-11-04T04:45:43.116Z,99110.41
2022-11-04T04:46:47.904Z,99105.75
2022-11-04T04:47:49.815Z,99106.31
2022-11-04T04:48:51.765Z,99098.59
2022-11-04T04:49:56.094Z,99111.03
2022-11-04T04:51:02.144Z,99102.69
2022-11-04T04:52:07.195Z,99102.06
2022-11-04T04:53:09.184Z,99113.66
2022-11-04T04:54:11.101Z,99112.44
2022-11-04T04:55:14.245Z,99116.06
2022-11-04T04:56:15.897Z,99114.44
2022-11-04T04:57:17.728Z,99111.00
2022-11-04T04:58:19.392Z,99106.91
2022-11-04T04:59:21.092Z,99119.53
2022-11-04T05:00:23.068Z,99111.19
2022-11-04T05:01:24.953Z,99111.00
2022-11-04T05:02:26.872Z,99112.44
2022-11-04T05:03:28.593Z,99115.50
2022-11-04T05:04:30.301Z,99121.34
2022-11-04T05:05:32.031Z,99113.84
2022-11-04T05:06:33.685Z,99114.66
2022-11-04T05:07:35.517Z,99120.53
2022-11-04T05:08:37.215Z,99126.63
2022-11-04T05:09:38.911Z,99121.59
2022-11-04T05:10:40.676Z,99117.91
2022-11-04T05:11:42.370Z,99109.59
2022-11-04T05:13:02.463Z,99117.69
2022-11-04T05:14:04.138Z,99122.16
2022-11-04T05:15:06.340Z,99125.81
2022-11-04T05:16:10.619Z,99122.16
2022-11-04T05:17:12.316Z,99114.66
2022-11-04T05:18:14.122Z,99119.34
2022-11-04T05:19:15.763Z,99116.88
2022-11-04T05:20:17.414Z,99117.31
2022-11-04T05:21:19.397Z,99119.75
2022-11-04T05:22:21.050Z,99120.56
2022-11-04T05:23:22.772Z,99124.03
2022-11-04T05:24:24.456Z,99123.81
2022-11-04T05:25:26.117Z,99108.38
2022-11-04T05:26:28.703Z,99125.25
2022-11-04T05:27:30.389Z,99122.38
2022-11-04T05:28:32.864Z,99124.63
2022-11-04T05:29:34.556Z,99123.63
2022-11-04T05:30:36.751Z,99125.66
2022-11-04T05:31:38.761Z,99119.38
2022-11-04T05:32:40.459Z,99125.84
2022-11-04T05:33:42.250Z,99129.09
2022-11-04T05:34:43.914Z,99120.19
2022-11-04T05:35:45.591Z,99127.31
2022-11-04T05:36:47.281Z,99130.75
2022-11-04T05:37:48.981Z,99118.75
2022-11-04T05:38:52.776Z,99135.63
2022-11-04T05:39:54.418Z,99127.88
2022-11-04T05:40:58.155Z,99135.22
2022-11-04T05:42:01.029Z,99141.09
2022-11-04T05:43:02.835Z,99135.63
2022-11-04T05:44:04.734Z,99142.34
2022-11-04T05:45:06.947Z,99139.06
2022-11-04T05:46:08.628Z,99143.75
2022-11-04T05:47:10.342Z,99138.47
2022-11-04T05:48:12.001Z,99145.34
2022-11-04T05:49:13.727Z,99146.19
2022-11-04T05:50:15.423Z,99146.19
2022-11-04T05:51:19.927Z,99152.25
2022-11-04T05:52:21.672Z,99150.22
2022-11-04T05:53:23.397Z,99149.41
2022-11-04T05:54:25.118Z,99142.06
2022-11-04T05:55:27.458Z,99148.38
2022-11-04T05:56:29.152Z,99150.59
2022-11-04T05:57:30.947Z,99149.34
2022-11-04T05:58:32.607Z,99148.75
2022-11-04T05:59:34.286Z,99157.72
2022-11-04T06:00:36.081Z,99158.34
2022-11-04T06:01:41.325Z,99158.72
2022-11-04T06:02:43.228Z,99164.41
2022-11-04T06:03:45.116Z,99162.56
2022-11-04T06:04:46.789Z,99157.88
2022-11-04T06:05:48.457Z,99155.25
2022-11-04T06:06:50.108Z,99160.13
2022-11-04T06:07:51.868Z,99163.34
2022-11-04T06:08:53.719Z,99164.97
2022-11-04T06:09:55.690Z,99166.59
2022-11-04T06:10:57.945Z,99172.72
2022-11-04T06:11:59.607Z,99179.38
2022-11-04T06:13:01.413Z,99161.06
2022-11-04T06:14:03.693Z,99176.28
2022-11-04T06:15:06.077Z,99169.56
2022-11-04T06:16:08.109Z,99172.16
2022-11-04T06:17:21.367Z,99170.72
2022-11-04T06:18:23.101Z,99175.97
2022-11-04T06:19:24.776Z,99170.03
2022-11-04T06:20:26.459Z,99175.53
2022-11-04T06:21:33.433Z,99184.44
2022-11-04T06:22:35.147Z,99187.06
2022-11-04T06:23:36.793Z,99192.31
2022-11-04T06:24:38.446Z,99180.28
2022-11-04T06:25:40.190Z,99187.16
2022-11-04T06:26:42.402Z,99188.34
2022-11-04T06:27:44.156Z,99188.09
2022-11-04T06:28:46.418Z,99189.50
2022-11-04T06:29:48.177Z,99178.69
2022-11-04T06:30:49.867Z,99183.34
2022-11-04T06:31:51.502Z,99187.38
2022-11-04T06:32:53.177Z,99184.09
2022-11-04T06:33:54.937Z,99177.56
2022-11-04T06:34:56.838Z,99170.22
2022-11-04T06:36:00.081Z,99177.69
2022-11-04T06:37:01.801Z,99178.09
2022-11-04T06:38:03.504Z,99176.47
2022-11-04T06:39:06.543Z,99184.13
2022-11-04T06:40:08.866Z,99179.44
2022-11-04T06:41:16.784Z,99181.22
2022-11-04T06:42:18.446Z,99170.22
2022-11-04T06:43:20.103Z,99174.84
2022-11-04T06:44:21.795Z,99176.34
2022-11-04T06:45:23.460Z,99178.38
2022-11-04T06:46:28.153Z,99184.41
2022-11-04T06:47:29.894Z,99185.16
2022-11-04T06:48:32.193Z,99183.03
2022-11-04T06:49:33.832Z,99184.94
2022-11-04T06:50:35.587Z,99186.50
2022-11-04T06:51:37.501Z,99174.53
2022-11-04T06:52:42.373Z,99186.25
2022-11-04T06:53:44.449Z,99183.06
2022-11-04T06:54:47.966Z,99173.91
2022-11-04T06:55:49.717Z,99183.25
2022-11-04T06:56:51.384Z,99178.22
2022-11-04T06:57:53.055Z,99184.75
2022-11-04T06:58:55.583Z,99180.03
2022-11-04T06:59:57.361Z,99183.88
2022-11-04T07:00:59.178Z,99184.53
2022-11-04T07:02:00.996Z,99183.94
2022-11-04T07:03:02.790Z,99184.47
2022-11-04T07:04:07.670Z,99185.00
2022-11-04T07:05:09.484Z,99184.28
2022-11-04T07:06:11.670Z,99188.00
2022-11-04T07:07:13.368Z,99183.81
2022-11-04T07:08:15.065Z,99195.41
2022-11-04T07:09:16.864Z,99189.75
2022-11-04T07:10:18.556Z,99189.75
2022-11-04T07:11:22.649Z,99184.25
2022-11-04T07:12:24.911Z,99181.25
2022-11-04T07:13:26.778Z,99176.03
2022-11-04T07:14:28.442Z,99177.00
2022-11-04T07:15:30.096Z,99175.72
2022-11-04T07:16:31.771Z,99177.38
2022-11-04T07:17:33.438Z,99177.44
2022-11-04T07:18:35.495Z,99177.00
2022-11-04T07:19:37.225Z,99178.66
2022-11-04T07:20:38.901Z,99171.25
2022-11-04T07:21:40.554Z,99169.13
2022-11-04T07:22:42.227Z,99171.53
2022-11-04T07:23:44.420Z,99174.50
2022-11-04T07:24:46.110Z,99172.88
2022-11-04T07:25:47.789Z,99169.94
2022-11-04T07:26:49.567Z,99175.28
2022-11-04T07:27:51.267Z,99168.88
2022-11-04T07:28:52.978Z,99164.06
2022-11-04T07:29:54.647Z,99164.03
2022-11-04T07:31:01.320Z,99165.16
2022-11-04T07:32:03.314Z,99167.28
2022-11-04T07:33:05.085Z,99152.50
2022-11-04T07:34:06.961Z,99156.78
2022-11-04T07:35:09.192Z,99156.16
2022-11-04T07:36:12.816Z,99156.16
2022-11-04T07:37:14.715Z,99144.81
2022-11-04T07:38:16.495Z,99146.63
2022-11-04T07:39:18.139Z,99151.72
2022-11-04T07:40:21.125Z,99150.53
2022-11-04T07:41:23.702Z,99139.59
2022-11-04T07:42:25.353Z,99146.09
2022-11-04T07:43:27.785Z,99145.16
2022-11-04T07:44:29.434Z,99143.56
2022-11-04T07:45:31.069Z,99140.09
2022-11-04T07:46:33.334Z,99135.66
2022-11-04T07:47:35.101Z,99131.44
2022-11-04T07:48:37.843Z,99129.72
2022-11-04T07:49:39.612Z,99137.44
2022-11-04T07:50:41.355Z,99131.22
2022-11-04T07:51:43.107Z,99131.50
2022-11-04T07:52:45.845Z,99136.66
2022-11-04T07:53:47.560Z,99133.97
2022-11-04T07:54:49.252Z,99125.09
2022-11-04T07:55:51.294Z,99129.50
2022-11-04T07:56:52.967Z,99129.16
2022-11-04T07:57:55.480Z,99126.47
2022-11-04T07:58:57.133Z,99124.78
2022-11-04T07:59:58.874Z,99121.88
2022-11-04T08:01:13.418Z,99122.09
2022-11-04T08:02:15.755Z,99123.41
2022-11-04T08:03:19.451Z,99121.28
2022-11-04T08:04:21.318Z,99118.81
2022-11-04T08:05:23.449Z,99117.59
2022-11-04T08:06:25.117Z,99110.69
2022-11-04T08:07:26.771Z,99110.66
2022-11-04T08:08:29.339Z,99108.72
2022-11-04T08:09:31.077Z,99111.88
2022-11-04T08:10:32.755Z,99104.75
2022-11-04T08:11:34.452Z,99108.31
2022-11-04T08:12:38.459Z,99105.53
2022-11-04T08:13:40.596Z,99096.97
2022-11-04T08:14:42.443Z,99104.00
2022-11-04T08:15:44.100Z,99103.00
2022-11-04T08:16:46.211Z,99094.72
2022-11-04T08:17:47.876Z,99103.50
2022-11-04T08:18:52.324Z,99094.94
2022-11-04T08:19:53.992Z,99095.22
2022-11-04T08:20:55.701Z,99088.91
2022-11-04T08:21:57.402Z,99088.31
2022-11-04T08:22:59.050Z,99088.50
2022-11-04T08:24:03.980Z,99094.63
2022-11-04T08:25:06.388Z,99087.75
2022-11-04T08:26:10.288Z,99089.84
2022-11-04T08:27:12.499Z,99091.91
2022-11-04T08:28:17.776Z,99089.69
2022-11-04T08:29:19.595Z,99093.03
2022-11-04T08:30:21.462Z,99081.81
2022-11-04T08:31:25.000Z,99082.91
2022-11-04T08:32:26.686Z,99088.16
2022-11-04T08:33:29.861Z,99083.66
2022-11-04T08:34:31.578Z,99080.63
2022-11-04T08:35:40.748Z,99079.31
2022-11-04T08:36:43.034Z,99077.72
2022-11-04T08:37:44.717Z,99081.38
2022-11-04T08:38:46.576Z,99083.25
2022-11-04T08:39:48.274Z,99080.75
2022-11-04T08:40:51.669Z,99077.50
2022-11-04T08:41:55.047Z,99085.69
2022-11-04T08:42:56.735Z,99072.34
2022-11-04T08:44:04.300Z,99074.53
2022-11-04T08:45:06.590Z,99077.44
2022-11-04T08:46:10.090Z,99076.72
2022-11-04T08:47:11.792Z,99067.38
2022-11-04T08:48:16.608Z,99063.31
2022-11-04T08:49:21.400Z,99062.53
2022-11-04T08:50:27.860Z,99066.69
2022-11-04T08:51:31.740Z,99063.59
2022-11-04T08:52:34.807Z,99054.88
2022-11-04T08:53:36.554Z,99049.03
2022-11-04T08:54:38.283Z,99064.44
2022-11-04T08:55:39.957Z,99053.28
2022-11-04T08:56:41.860Z,99044.25
2022-11-04T08:57:43.514Z,99042.06
2022-11-04T08:58:45.652Z,99046.88
2022-11-04T08:59:47.507Z,99044.75
2022-11-04T09:00:49.700Z,99049.88
2022-11-04T09:01:51.470Z,99039.06
2022-11-04T09:02:53.299Z,99045.19
2022-11-04T09:03:55.124Z,99038.28
2022-11-04T09:04:56.867Z,99039.66
2022-11-04T09:05:58.551Z,99039.38
2022-11-04T09:07:07.839Z,99033.28
2022-11-04T09:08:09.845Z,99033.22
2022-11-04T09:09:14.785Z,99033.31
2022-11-04T09:10:17.428Z,99037.56
2022-11-04T09:11:19.378Z,99034.56
2022-11-04T09:12:21.712Z,99037.25
2022-11-04T09:13:23.436Z,99031.31
2022-11-04T09:14:25.139Z,99025.75
2022-11-04T09:15:27.271Z,99029.94
2022-11-04T09:16:31.613Z,99026.34
2022-11-04T09:17:33.239Z,99029.94
2022-11-04T09:18:34.893Z,99017.69
2022-11-04T09:19:36.653Z,99012.53
2022-11-04T09:20:42.321Z,99011.63
2022-11-04T09:21:44.103Z,99021.00
2022-11-04T09:22:46.219Z,99014.34
2022-11-04T09:23:47.863Z,99021.50
2022-11-04T09:24:49.498Z,99012.09
2022-11-04T09:25:51.183Z,99009.25
2022-11-04T09:26:52.877Z,99012.44
2022-11-04T09:27:54.585Z,99004.19
2022-11-04T09:28:58.157Z,98999.63
2022-11-04T09:30:00.034Z,99000.34
2022-11-04T09:31:06.220Z,98997.97
2022-11-04T09:32:08.587Z,99002.09
2022-11-04T09:33:10.511Z,99004.75
2022-11-04T09:34:12.418Z,99001.97
2022-11-04T09:35:16.341Z,98997.00
2022-11-04T09:36:18.263Z,98997.09
2022-11-04T09:37:20.121Z,99000.19
2022-11-04T09:38:21.855Z,98996.72
2022-11-04T09:39:24.453Z,98989.44
2022-11-04T09:40:26.545Z,98986.69
2022-11-04T09:41:46.397Z,98991.97
2022-11-04T09:43:09.319Z,98991.56
2022-11-04T09:44:19.884Z,98995.41
2022-11-04T09:45:27.790Z,98991.97
2022-11-04T09:46:33.152Z,98993.38
2022-11-04T09:47:36.354Z,98981.53
2022-11-04T09:48:55.277Z,98979.31
2022-11-04T09:49:59.244Z,98978.06
2022-11-04T09:51:06.581Z,98975.97
2022-11-04T09:52:35.081Z,98976.72
2022-11-04T09:53:48.014Z,98970.44
2022-11-04T09:54:58.507Z,98973.38
2022-11-04T09:56:16.788Z,98968.59
2022-11-04T09:57:19.801Z,98960.31
2022-11-04T09:58:21.919Z,98951.75
2022-11-04T09:59:33.237Z,98952.25
2022-11-04T10:00:39.666Z,98949.72
2022-11-04T10:01:55.255Z,98953.88
2022-11-04T10:03:10.433Z,98946.56
2022-11-04T10:04:28.744Z,98941.59
2022-11-04T10:05:50.749Z,98942.41
2022-11-04T10:07:20.442Z,98940.28
2022-11-04T10:09:17.444Z,98940.31
2022-11-04T10:10:51.088Z,98942.84
2022-11-04T10:12:01.717Z,98942.31
2022-11-04T10:13:21.556Z,98931.84
2022-11-04T10:14:48.235Z,98927.94
2022-11-04T10:16:05.093Z,98925.56
2022-11-04T10:17:24.972Z,98935.94
2022-11-04T10:19:03.968Z,98921.47
2022-11-04T10:20:17.521Z,98920.97
2022-11-04T10:21:25.058Z,98921.44
2022-11-04T10:22:34.031Z,98911.31
2022-11-04T10:23:45.963Z,98908.88
2022-11-04T10:25:16.271Z,98910.00
2022-11-04T10:26:28.007Z,98912.72
2022-11-04T10:27:33.501Z,98905.19
2022-11-04T10:28:42.130Z,98901.81
2022-11-04T10:30:08.389Z,98906.56
2022-11-04T10:31:18.701Z,98907.69
2022-11-04T10:32:29.115Z,98902.06
2022-11-04T10:33:37.929Z,98895.09
2022-11-04T10:35:06.521Z,98893.19
2022-11-04T10:36:10.882Z,98894.28
2022-11-04T10:37:13.403Z,98889.97
2022-11-04T10:38:26.983Z,98883.94
2022-11-04T10:39:36.181Z,98880.91
2022-11-04T10:40:40.072Z,98885.44
2022-11-04T10:41:41.776Z,98882.47
2022-11-04T10:42:43.479Z,98886.06
2022-11-04T10:43:45.226Z,98880.41
2022-11-04T10:44:48.738Z,98875.78
2022-11-04T10:46:15.684Z,98875.81
2022-11-04T10:47:38.559Z,98867.38
2022-11-04T10:48:52.021Z,98862.84
2022-11-04T10:50:26.547Z,98864.94
2022-11-04T10:51:22.187Z,98863.53
2022-11-04T10:52:24.102Z,98865.53
2022-11-04T10:53:28.742Z,98857.97
2022-11-04T10:54:38.542Z,98857.38
2022-11-04T10:55:52.063Z,98856.94
2022-11-04T10:56:57.384Z,98858.91
2022-11-04T10:58:00.102Z,98856.47
2022-11-04T10:59:20.451Z,98852.84
2022-11-04T11:00:41.921Z,98845.81
2022-11-04T11:01:49.983Z,98843.31
2022-11-04T11:02:51.734Z,98842.50
2022-11-04T11:03:54.491Z,98838.69
2022-11-04T11:05:21.822Z,98837.66
2022-11-04T11:06:23.428Z,98834.84
2022-11-04T11:07:36.879Z,98837.22
2022-11-04T11:08:39.209Z,98830.16
2022-11-04T11:09:40.817Z,98838.69
2022-11-04T11:10:52.995Z,98835.19
2022-11-04T11:12:01.183Z,98833.47
2022-11-04T11:13:23.572Z,98829.94
2022-11-04T11:14:28.013Z,98825.47
2022-11-04T11:15:33.374Z,98830.81
2022-11-04T11:16:35.151Z,98823.31
2022-11-04T11:17:38.663Z,98834.94
2022-11-04T11:18:41.760Z,98826.75
2022-11-04T11:19:59.805Z,98832.16
2022-11-04T11:21:16.050Z,98825.94
2022-11-04T11:22:40.824Z,98817.16
2022-11-04T11:23:54.635Z,98823.25
2022-11-04T11:25:33.052Z,98814.06
2022-11-04T11:26:34.748Z,98812.50
2022-11-04T11:27:36.771Z,98811.13
2022-11-04T11:28:40.680Z,98813.19
2022-11-04T11:29:42.410Z,98805.38
2022-11-04T11:30:44.233Z,98811.59
2022-11-04T11:31:45.954Z,98805.13
2022-11-04T11:32:53.554Z,98802.00
2022-11-04T11:34:06.048Z,98801.50
2022-11-04T11:35:16.985Z,98799.34
2022-11-04T11:36:20.902Z,98797.59
2022-11-04T11:37:24.872Z,98799.13
2022-11-04T11:38:29.320Z,98798.19
2022-11-04T11:39:33.007Z,98793.47
2022-11-04T11:40:51.954Z,98787.44
2022-11-04T11:42:03.006Z,98788.28
2022-11-04T11:43:05.184Z,98786.44
2022-11-04T11:44:38.671Z,98788.63
2022-11-04T11:45:47.324Z,98778.28
2022-11-04T11:46:57.634Z,98782.94
2022-11-04T11:47:59.341Z,98779.53
2022-11-04T11:49:03.707Z,98784.63
2022-11-04T11:50:18.708Z,98779.94
2022-11-04T11:51:32.265Z,98783.66
2022-11-04T11:52:38.321Z,98780.19
2022-11-04T11:53:57.031Z,98786.97
2022-11-04T11:55:23.804Z,98780.00
2022-11-04T11:56:52.181Z,98779.19
2022-11-04T12:01:23.956Z,98770.59
2022-11-04T12:02:36.323Z,98765.72
2022-11-04T12:10:24.163Z,98765.41
2022-11-04T12:12:10.484Z,98767.28
2022-11-04T12:13:24.864Z,98749.31
2022-11-04T12:14:37.935Z,98755.75
2022-11-04T12:15:59.144Z,98741.81
2022-11-04T12:17:38.121Z,98748.31
2022-11-04T12:19:00.912Z,98741.13
2022-11-04T12:20:20.731Z,98741.09
2022-11-04T12:21:35.210Z,98741.09
2022-11-04T12:23:03.517Z,98736.31
2022-11-04T12:24:42.386Z,98740.59
2022-11-04T12:25:55.020Z,98735.53
2022-11-04T12:27:13.792Z,98730.47
2022-11-04T12:28:39.733Z,98725.63
2022-11-04T12:29:41.360Z,98730.47
2022-11-04T12:31:04.786Z,98719.75
2022-11-04T12:32:18.787Z,98726.97
2022-11-04T12:33:49.244Z,98726.16
2022-11-04T12:34:50.882Z,98723.75
2022-11-04T12:36:14.167Z,98722.94
2022-11-04T12:38:12.805Z,98719.22
2022-11-04T12:39:44.994Z,98706.91
2022-11-04T12:41:34.639Z,98709.84
2022-11-04T12:42:54.751Z,98718.16
2022-11-04T12:44:13.471Z,98704.75
2022-11-04T12:45:28.650Z,98702.88
2022-11-04T12:46:47.018Z,98705.81
2022-11-04T12:47:49.464Z,98705.03
2022-11-04T12:49:21.680Z,98701.53
2022-11-04T12:50:42.655Z,98696.16
2022-11-04T12:52:16.669Z,98703.13
2022-11-04T12:53:39.269Z,98700.97
2022-11-04T12:55:05.089Z,98693.50
2022-11-04T12:56:14.967Z,98696.16
2022-11-04T12:57:28.473Z,98699.91
2022-11-04T12:58:57.756Z,98688.16
2022-11-04T13:00:10.359Z,98688.94
2022-11-04T13:01:24.791Z,98688.16
2022-11-04T13:02:34.311Z,98697.22
2022-11-04T13:03:53.640Z,98683.59
2022-11-04T13:05:21.955Z,98691.88
2022-11-04T13:06:33.885Z,98691.09
2022-11-04T13:07:43.031Z,98696.69
2022-11-04T13:08:44.645Z,98700.19
2022-11-04T13:10:05.332Z,98690.56
2022-11-04T13:11:24.385Z,98703.69
2022-11-04T13:12:38.313Z,98698.06
2022-11-04T13:13:40.779Z,98698.88
2022-11-04T13:14:55.859Z,98694.06
2022-11-04T13:16:00.340Z,98693.50
2022-11-04T13:17:07.902Z,98695.63
2022-11-04T13:18:16.547Z,98683.84
2022-11-04T13:19:31.560Z,98694.03
2022-11-04T13:20:51.129Z,98687.56
2022-11-04T13:21:55.121Z,98687.88
2022-11-04T13:23:03.405Z,98684.91
2022-11-04T13:24:14.705Z,98685.19